This is the latest recevied weather packets stored in our database for station/object HOWARD. If no packets are shown the sender has not sent any weather packets the latest 10 day(s).
| Time | Temp. | Humidity | Pressure | Rain* | Wind** | Luminosity | Snow |
|---|---|---|---|---|---|---|---|
| 1787957077 | 15.56° C | 47% | 1016.5 hPa | 0 mm | - | - | - |
| 1787956568 | 15° C | 49% | 1016.6 hPa | 0 mm | - | - | - |
| 1787956477 | 15° C | 49% | 1016.6 hPa | 0 mm | - | - | - |
| 1787955877 | 14.44° C | 50% | 1016.6 hPa | 0 mm | - | - | - |
| 1787955277 | 15.56° C | 48% | 1016.7 hPa | 0 mm | - | - | - |
| 1787954725 | 15° C | 50% | 1016.8 hPa | 0 mm | - | - | - |
| 1787954677 | 15° C | 50% | 1016.8 hPa | 0 mm | - | - | - |
| 1787954077 | 15° C | 50% | 1016.8 hPa | 0 mm | - | - | - |
| 1787953477 | 15° C | 50% | 1016.8 hPa | 0 mm | - | - | - |
| 1787952877 | 14.44° C | 51% | 1016.9 hPa | 0 mm | - | - | - |
| 1787952277 | 15° C | 51% | 1017 hPa | 0 mm | - | - | - |
| 1787951677 | 15° C | 49% | 1016.9 hPa | 0 mm | - | - | - |
| 1787951077 | 14.44° C | 52% | 1016.9 hPa | 0 mm | - | - | - |
| 1787950539 | 14.44° C | 50% | 1016.9 hPa | 0 mm | - | - | - |
| 1787950477 | 14.44° C | 50% | 1016.9 hPa | 0 mm | - | - | - |
| 1787949877 | 14.44° C | 50% | 1017.6 hPa | 0 mm | - | - | - |
| 1787949277 | 13.89° C | 53% | 1017.5 hPa | 0 mm | - | - | - |
| 1787948677 | 13.89° C | 54% | 1017.5 hPa | 0 mm | - | - | - |
| 1787948077 | 13.89° C | 54% | 1017.4 hPa | 0 mm | - | - | - |
| 1787947477 | 13.89° C | 55% | 1017.6 hPa | 0 mm | - | - | - |
| 1787946877 | 13.89° C | 57% | 1017.7 hPa | 0 mm | - | - | - |
| 1787946363 | 14.44° C | 55% | 1017.8 hPa | 0 mm | - | - | - |
| 1787946277 | 14.44° C | 55% | 1017.8 hPa | 0 mm | - | - | - |
| 1787945677 | 15° C | 55% | 1017.8 hPa | 0 mm | - | - | - |
| 1787945077 | 15.56° C | 51% | 1018 hPa | 0 mm | - | - | - |
* Rain latest hour (hover to see other rain measurements)
** Current wind speed in m/s (hover to see current wind gust speed)